sensor_id;sensor_type;location;lat;lon;timestamp;temperature;humidity
12015;DHT22;6066;48.138;16.402;2022-08-18T00:02:23;21.90;99.90
12015;DHT22;6066;48.138;16.402;2022-08-18T00:04:51;21.90;99.90
12015;DHT22;6066;48.138;16.402;2022-08-18T00:07:19;22.00;99.90
12015;DHT22;6066;48.138;16.402;2022-08-18T00:09:46;22.00;99.90
12015;DHT22;6066;48.138;16.402;2022-08-18T00:12:14;22.10;99.90
12015;DHT22;6066;48.138;16.402;2022-08-18T00:14:41;22.10;99.90
12015;DHT22;6066;48.138;16.402;2022-08-18T00:17:09;22.10;99.90
12015;DHT22;6066;48.138;16.402;2022-08-18T00:19:36;22.10;99.90
12015;DHT22;6066;48.138;16.402;2022-08-18T00:22:03;22.00;99.90
12015;DHT22;6066;48.138;16.402;2022-08-18T00:24:30;21.90;99.90
12015;DHT22;6066;48.138;16.402;2022-08-18T00:26:57;21.90;99.90
12015;DHT22;6066;48.138;16.402;2022-08-18T00:29:23;21.90;99.90
12015;DHT22;6066;48.138;16.402;2022-08-18T00:31:50;21.90;99.90
12015;DHT22;6066;48.138;16.402;2022-08-18T00:34:18;21.90;99.90
12015;DHT22;6066;48.138;16.402;2022-08-18T00:36:45;21.90;99.90
12015;DHT22;6066;48.138;16.402;2022-08-18T00:39:12;21.80;99.90
12015;DHT22;6066;48.138;16.402;2022-08-18T00:41:39;21.80;99.90
12015;DHT22;6066;48.138;16.402;2022-08-18T00:44:05;21.80;99.90
12015;DHT22;6066;48.138;16.402;2022-08-18T00:46:33;21.80;99.90
12015;DHT22;6066;48.138;16.402;2022-08-18T00:49:00;21.70;99.90
12015;DHT22;6066;48.138;16.402;2022-08-18T00:51:32;21.60;99.90
12015;DHT22;6066;48.138;16.402;2022-08-18T00:54:00;21.70;99.90
12015;DHT22;6066;48.138;16.402;2022-08-18T00:56:29;21.60;99.90
12015;DHT22;6066;48.138;16.402;2022-08-18T00:58:59;21.60;99.90
12015;DHT22;6066;48.138;16.402;2022-08-18T01:01:28;21.50;99.90
12015;DHT22;6066;48.138;16.402;2022-08-18T01:03:57;21.50;99.90
12015;DHT22;6066;48.138;16.402;2022-08-18T01:06:27;21.50;99.90
12015;DHT22;6066;48.138;16.402;2022-08-18T01:08:58;21.40;99.90
12015;DHT22;6066;48.138;16.402;2022-08-18T01:11:24;21.40;99.90
12015;DHT22;6066;48.138;16.402;2022-08-18T01:13:51;21.40;99.90
12015;DHT22;6066;48.138;16.402;2022-08-18T01:16:19;21.40;99.90
12015;DHT22;6066;48.138;16.402;2022-08-18T01:19:03;21.40;99.90
12015;DHT22;6066;48.138;16.402;2022-08-18T01:21:50;21.40;99.90
12015;DHT22;6066;48.138;16.402;2022-08-18T01:24:20;21.40;99.90
12015;DHT22;6066;48.138;16.402;2022-08-18T01:27:07;21.40;99.90
12015;DHT22;6066;48.138;16.402;2022-08-18T01:29:34;21.40;99.90
12015;DHT22;6066;48.138;16.402;2022-08-18T01:32:01;21.30;99.90
12015;DHT22;6066;48.138;16.402;2022-08-18T01:34:28;21.30;99.90
12015;DHT22;6066;48.138;16.402;2022-08-18T01:36:55;21.30;99.90
12015;DHT22;6066;48.138;16.402;2022-08-18T01:39:23;21.20;99.90
12015;DHT22;6066;48.138;16.402;2022-08-18T01:41:50;21.20;99.90
12015;DHT22;6066;48.138;16.402;2022-08-18T01:44:16;21.20;99.90
12015;DHT22;6066;48.138;16.402;2022-08-18T01:46:43;21.10;99.90
12015;DHT22;6066;48.138;16.402;2022-08-18T01:49:10;21.10;99.90
12015;DHT22;6066;48.138;16.402;2022-08-18T01:51:37;21.00;99.90
12015;DHT22;6066;48.138;16.402;2022-08-18T01:54:06;21.00;99.90
12015;DHT22;6066;48.138;16.402;2022-08-18T01:56:34;21.00;99.90
12015;DHT22;6066;48.138;16.402;2022-08-18T01:59:02;20.90;99.90
12015;DHT22;6066;48.138;16.402;2022-08-18T02:01:29;20.90;99.90
12015;DHT22;6066;48.138;16.402;2022-08-18T02:03:57;20.90;99.90
12015;DHT22;6066;48.138;16.402;2022-08-18T02:06:25;20.90;99.90
12015;DHT22;6066;48.138;16.402;2022-08-18T02:08:52;20.90;99.90
12015;DHT22;6066;48.138;16.402;2022-08-18T02:11:18;20.90;99.90
12015;DHT22;6066;48.138;16.402;2022-08-18T02:13:46;20.80;99.90
12015;DHT22;6066;48.138;16.402;2022-08-18T02:16:13;20.80;99.90
12015;DHT22;6066;48.138;16.402;2022-08-18T02:18:40;20.90;99.90
12015;DHT22;6066;48.138;16.402;2022-08-18T02:21:08;20.80;99.90
12015;DHT22;6066;48.138;16.402;2022-08-18T02:23:35;20.70;99.90
12015;DHT22;6066;48.138;16.402;2022-08-18T02:26:03;20.70;99.90
12015;DHT22;6066;48.138;16.402;2022-08-18T02:28:30;20.60;99.90
12015;DHT22;6066;48.138;16.402;2022-08-18T02:31:00;20.50;99.90
12015;DHT22;6066;48.138;16.402;2022-08-18T02:33:28;20.40;99.90
12015;DHT22;6066;48.138;16.402;2022-08-18T02:35:55;20.40;99.90
12015;DHT22;6066;48.138;16.402;2022-08-18T02:38:22;20.30;99.90
12015;DHT22;6066;48.138;16.402;2022-08-18T02:40:52;20.20;99.90
12015;DHT22;6066;48.138;16.402;2022-08-18T02:43:19;20.20;99.90
12015;DHT22;6066;48.138;16.402;2022-08-18T02:45:46;20.20;99.90
12015;DHT22;6066;48.138;16.402;2022-08-18T02:48:14;20.20;99.90
12015;DHT22;6066;48.138;16.402;2022-08-18T02:50:41;20.20;99.90
12015;DHT22;6066;48.138;16.402;2022-08-18T02:53:11;20.20;99.90
12015;DHT22;6066;48.138;16.402;2022-08-18T02:55:40;20.20;99.90
12015;DHT22;6066;48.138;16.402;2022-08-18T02:58:07;20.20;99.90
12015;DHT22;6066;48.138;16.402;2022-08-18T03:00:34;20.20;99.90
12015;DHT22;6066;48.138;16.402;2022-08-18T03:03:00;20.10;99.90
12015;DHT22;6066;48.138;16.402;2022-08-18T03:05:29;20.10;99.90
12015;DHT22;6066;48.138;16.402;2022-08-18T03:07:55;20.10;99.90
12015;DHT22;6066;48.138;16.402;2022-08-18T03:10:24;20.10;99.90
12015;DHT22;6066;48.138;16.402;2022-08-18T03:12:50;20.10;99.90
12015;DHT22;6066;48.138;16.402;2022-08-18T03:15:17;20.10;99.90
12015;DHT22;6066;48.138;16.402;2022-08-18T03:17:44;20.10;99.90
12015;DHT22;6066;48.138;16.402;2022-08-18T03:20:11;20.10;99.90
12015;DHT22;6066;48.138;16.402;2022-08-18T03:22:39;20.10;99.90
12015;DHT22;6066;48.138;16.402;2022-08-18T03:25:06;20.10;99.90
12015;DHT22;6066;48.138;16.402;2022-08-18T03:27:33;20.30;99.90
12015;DHT22;6066;48.138;16.402;2022-08-18T03:30:00;20.30;99.90
12015;DHT22;6066;48.138;16.402;2022-08-18T03:32:29;20.30;99.90
12015;DHT22;6066;48.138;16.402;2022-08-18T03:34:56;20.30;99.90
12015;DHT22;6066;48.138;16.402;2022-08-18T03:37:24;20.30;99.90
12015;DHT22;6066;48.138;16.402;2022-08-18T03:39:52;20.20;99.90
12015;DHT22;6066;48.138;16.402;2022-08-18T03:42:18;20.20;99.90
12015;DHT22;6066;48.138;16.402;2022-08-18T03:44:45;20.10;99.90
12015;DHT22;6066;48.138;16.402;2022-08-18T03:47:12;20.10;99.90
12015;DHT22;6066;48.138;16.402;2022-08-18T03:49:40;20.10;99.90
12015;DHT22;6066;48.138;16.402;2022-08-18T03:52:07;20.10;99.90
12015;DHT22;6066;48.138;16.402;2022-08-18T03:54:34;20.10;99.90
12015;DHT22;6066;48.138;16.402;2022-08-18T03:57:06;20.10;99.90
12015;DHT22;6066;48.138;16.402;2022-08-18T03:59:32;20.10;99.90
12015;DHT22;6066;48.138;16.402;2022-08-18T04:02:00;20.20;99.90
12015;DHT22;6066;48.138;16.402;2022-08-18T04:04:27;20.20;99.90
12015;DHT22;6066;48.138;16.402;2022-08-18T04:06:55;20.30;99.90
12015;DHT22;6066;48.138;16.402;2022-08-18T04:09:22;20.30;99.90
12015;DHT22;6066;48.138;16.402;2022-08-18T04:11:49;20.30;99.90
12015;DHT22;6066;48.138;16.402;2022-08-18T04:14:18;20.20;99.90
12015;DHT22;6066;48.138;16.402;2022-08-18T04:16:45;20.20;99.90
12015;DHT22;6066;48.138;16.402;2022-08-18T04:19:12;20.30;99.90
12015;DHT22;6066;48.138;16.402;2022-08-18T04:21:39;20.30;99.90
12015;DHT22;6066;48.138;16.402;2022-08-18T04:24:06;20.40;99.90
12015;DHT22;6066;48.138;16.402;2022-08-18T04:26:34;20.40;99.90
12015;DHT22;6066;48.138;16.402;2022-08-18T04:29:01;20.40;99.90
12015;DHT22;6066;48.138;16.402;2022-08-18T04:31:29;20.40;99.90
12015;DHT22;6066;48.138;16.402;2022-08-18T04:33:56;20.50;99.90
12015;DHT22;6066;48.138;16.402;2022-08-18T04:36:24;20.50;99.90
12015;DHT22;6066;48.138;16.402;2022-08-18T04:38:51;20.60;99.90
12015;DHT22;6066;48.138;16.402;2022-08-18T04:41:18;20.70;99.90
12015;DHT22;6066;48.138;16.402;2022-08-18T04:43:52;20.70;99.90
12015;DHT22;6066;48.138;16.402;2022-08-18T04:46:18;20.80;99.90
12015;DHT22;6066;48.138;16.402;2022-08-18T04:48:46;20.90;99.90
12015;DHT22;6066;48.138;16.402;2022-08-18T04:51:14;20.90;99.90
12015;DHT22;6066;48.138;16.402;2022-08-18T04:53:42;21.00;99.90
12015;DHT22;6066;48.138;16.402;2022-08-18T04:56:14;21.00;99.90
12015;DHT22;6066;48.138;16.402;2022-08-18T04:58:44;21.10;99.90
12015;DHT22;6066;48.138;16.402;2022-08-18T05:01:16;21.20;99.90
12015;DHT22;6066;48.138;16.402;2022-08-18T05:03:43;21.30;99.90
12015;DHT22;6066;48.138;16.402;2022-08-18T05:06:11;21.40;99.90
12015;DHT22;6066;48.138;16.402;2022-08-18T05:08:38;21.60;99.90
12015;DHT22;6066;48.138;16.402;2022-08-18T05:11:04;21.70;99.90
12015;DHT22;6066;48.138;16.402;2022-08-18T05:13:31;21.80;99.90
12015;DHT22;6066;48.138;16.402;2022-08-18T05:15:58;22.00;99.90
12015;DHT22;6066;48.138;16.402;2022-08-18T05:18:28;22.20;99.90
12015;DHT22;6066;48.138;16.402;2022-08-18T05:20:55;22.40;99.90
12015;DHT22;6066;48.138;16.402;2022-08-18T05:23:23;22.50;99.90
12015;DHT22;6066;48.138;16.402;2022-08-18T05:25:55;22.60;99.90
12015;DHT22;6066;48.138;16.402;2022-08-18T05:28:22;22.60;99.90
12015;DHT22;6066;48.138;16.402;2022-08-18T05:30:49;22.70;99.90
12015;DHT22;6066;48.138;16.402;2022-08-18T05:33:17;22.80;99.90
12015;DHT22;6066;48.138;16.402;2022-08-18T05:35:46;22.90;99.90
12015;DHT22;6066;48.138;16.402;2022-08-18T05:38:18;23.00;99.90
12015;DHT22;6066;48.138;16.402;2022-08-18T05:40:56;23.10;99.90
12015;DHT22;6066;48.138;16.402;2022-08-18T05:43:27;23.20;99.90
12015;DHT22;6066;48.138;16.402;2022-08-18T05:45:54;23.20;99.90
12015;DHT22;6066;48.138;16.402;2022-08-18T05:48:22;23.30;99.90
12015;DHT22;6066;48.138;16.402;2022-08-18T05:50:50;23.30;99.90
12015;DHT22;6066;48.138;16.402;2022-08-18T05:53:17;23.40;99.90
12015;DHT22;6066;48.138;16.402;2022-08-18T05:56:05;23.40;99.90
12015;DHT22;6066;48.138;16.402;2022-08-18T05:58:52;23.50;99.90
12015;DHT22;6066;48.138;16.402;2022-08-18T06:01:23;23.50;99.90
12015;DHT22;6066;48.138;16.402;2022-08-18T06:03:52;23.60;99.90
12015;DHT22;6066;48.138;16.402;2022-08-18T06:06:21;23.70;99.90
12015;DHT22;6066;48.138;16.402;2022-08-18T06:08:51;23.70;99.90
12015;DHT22;6066;48.138;16.402;2022-08-18T06:11:23;23.70;99.90
12015;DHT22;6066;48.138;16.402;2022-08-18T06:13:50;23.80;99.90
12015;DHT22;6066;48.138;16.402;2022-08-18T06:16:18;23.80;99.90
12015;DHT22;6066;48.138;16.402;2022-08-18T06:18:48;23.90;99.90
12015;DHT22;6066;48.138;16.402;2022-08-18T06:21:25;24.00;99.90
12015;DHT22;6066;48.138;16.402;2022-08-18T06:23:59;24.10;99.90
12015;DHT22;6066;48.138;16.402;2022-08-18T06:26:33;24.20;99.90
12015;DHT22;6066;48.138;16.402;2022-08-18T06:29:06;24.30;99.90
12015;DHT22;6066;48.138;16.402;2022-08-18T06:31:38;24.50;99.90
12015;DHT22;6066;48.138;16.402;2022-08-18T06:34:09;24.60;99.90
12015;DHT22;6066;48.138;16.402;2022-08-18T06:36:43;24.80;99.90
12015;DHT22;6066;48.138;16.402;2022-08-18T06:39:16;24.90;99.90
12015;DHT22;6066;48.138;16.402;2022-08-18T06:41:48;25.10;99.90
12015;DHT22;6066;48.138;16.402;2022-08-18T06:44:19;25.10;99.90
12015;DHT22;6066;48.138;16.402;2022-08-18T06:46:47;25.20;99.90
12015;DHT22;6066;48.138;16.402;2022-08-18T06:49:17;25.30;99.90
12015;DHT22;6066;48.138;16.402;2022-08-18T06:51:47;25.30;99.90
12015;DHT22;6066;48.138;16.402;2022-08-18T06:54:27;25.40;99.90
12015;DHT22;6066;48.138;16.402;2022-08-18T06:56:57;25.40;99.90
12015;DHT22;6066;48.138;16.402;2022-08-18T06:59:25;25.50;99.90
12015;DHT22;6066;48.138;16.402;2022-08-18T07:01:55;25.50;99.90
12015;DHT22;6066;48.138;16.402;2022-08-18T07:04:35;25.50;99.90
12015;DHT22;6066;48.138;16.402;2022-08-18T07:07:17;25.60;99.90
12015;DHT22;6066;48.138;16.402;2022-08-18T07:09:44;25.70;99.90
12015;DHT22;6066;48.138;16.402;2022-08-18T07:12:21;25.80;99.90
12015;DHT22;6066;48.138;16.402;2022-08-18T07:14:48;25.90;99.90
12015;DHT22;6066;48.138;16.402;2022-08-18T07:17:19;26.00;99.90
12015;DHT22;6066;48.138;16.402;2022-08-18T07:19:53;26.10;99.90
12015;DHT22;6066;48.138;16.402;2022-08-18T07:22:22;26.20;99.90
12015;DHT22;6066;48.138;16.402;2022-08-18T07:24:49;26.30;99.90
12015;DHT22;6066;48.138;16.402;2022-08-18T07:27:20;26.50;99.90
12015;DHT22;6066;48.138;16.402;2022-08-18T07:30:00;26.60;99.90
12015;DHT22;6066;48.138;16.402;2022-08-18T07:32:29;26.60;99.90
12015;DHT22;6066;48.138;16.402;2022-08-18T07:34:58;26.70;99.90
12015;DHT22;6066;48.138;16.402;2022-08-18T07:37:28;26.80;99.90
12015;DHT22;6066;48.138;16.402;2022-08-18T07:39:58;27.00;99.60
12015;DHT22;6066;48.138;16.402;2022-08-18T07:42:30;27.00;99.70
12015;DHT22;6066;48.138;16.402;2022-08-18T07:44:59;27.00;99.80
12015;DHT22;6066;48.138;16.402;2022-08-18T07:47:30;27.10;99.90
12015;DHT22;6066;48.138;16.402;2022-08-18T07:49:57;27.20;99.90
12015;DHT22;6066;48.138;16.402;2022-08-18T07:52:25;27.20;99.80
12015;DHT22;6066;48.138;16.402;2022-08-18T07:54:58;27.20;99.90
12015;DHT22;6066;48.138;16.402;2022-08-18T07:57:31;27.30;99.80
12015;DHT22;6066;48.138;16.402;2022-08-18T08:00:03;27.30;99.90
12015;DHT22;6066;48.138;16.402;2022-08-18T08:02:34;27.40;99.10
12015;DHT22;6066;48.138;16.402;2022-08-18T08:05:06;27.40;99.30
12015;DHT22;6066;48.138;16.402;2022-08-18T08:07:36;27.50;99.40
12015;DHT22;6066;48.138;16.402;2022-08-18T08:10:11;27.50;99.60
12015;DHT22;6066;48.138;16.402;2022-08-18T08:12:46;27.60;99.30
12015;DHT22;6066;48.138;16.402;2022-08-18T08:15:18;27.60;99.10
12015;DHT22;6066;48.138;16.402;2022-08-18T08:17:49;27.80;98.90
12015;DHT22;6066;48.138;16.402;2022-08-18T08:20:22;27.80;99.00
12015;DHT22;6066;48.138;16.402;2022-08-18T08:22:57;27.90;99.10
12015;DHT22;6066;48.138;16.402;2022-08-18T08:25:28;28.00;99.20
12015;DHT22;6066;48.138;16.402;2022-08-18T08:28:05;28.10;98.80
12015;DHT22;6066;48.138;16.402;2022-08-18T08:30:35;28.20;98.90
12015;DHT22;6066;48.138;16.402;2022-08-18T08:33:04;28.30;98.60
12015;DHT22;6066;48.138;16.402;2022-08-18T08:35:35;28.40;98.40
12015;DHT22;6066;48.138;16.402;2022-08-18T08:38:05;28.50;98.10
12015;DHT22;6066;48.138;16.402;2022-08-18T08:40:36;28.50;98.40
12015;DHT22;6066;48.138;16.402;2022-08-18T08:43:07;28.60;97.80
12015;DHT22;6066;48.138;16.402;2022-08-18T08:45:36;28.70;97.90
12015;DHT22;6066;48.138;16.402;2022-08-18T08:48:06;28.80;97.90
12015;DHT22;6066;48.138;16.402;2022-08-18T08:50:37;28.90;97.50
12015;DHT22;6066;48.138;16.402;2022-08-18T08:53:06;28.90;96.70
12015;DHT22;6066;48.138;16.402;2022-08-18T08:55:34;29.00;96.90
12015;DHT22;6066;48.138;16.402;2022-08-18T08:58:08;29.10;97.20
12015;DHT22;6066;48.138;16.402;2022-08-18T09:00:39;29.30;95.90
12015;DHT22;6066;48.138;16.402;2022-08-18T09:03:11;29.30;96.60
12015;DHT22;6066;48.138;16.402;2022-08-18T09:05:42;29.40;97.30
12015;DHT22;6066;48.138;16.402;2022-08-18T09:08:17;29.50;96.50
12015;DHT22;6066;48.138;16.402;2022-08-18T09:13:41;29.80;97.10
12015;DHT22;6066;48.138;16.402;2022-08-18T09:16:17;30.00;96.40
12015;DHT22;6066;48.138;16.402;2022-08-18T09:18:52;30.10;96.30
12015;DHT22;6066;48.138;16.402;2022-08-18T09:21:30;30.20;96.20
12015;DHT22;6066;48.138;16.402;2022-08-18T09:24:03;30.40;96.00
12015;DHT22;6066;48.138;16.402;2022-08-18T09:26:38;30.50;95.30
12015;DHT22;6066;48.138;16.402;2022-08-18T09:29:12;30.60;95.50
12015;DHT22;6066;48.138;16.402;2022-08-18T09:31:40;30.70;96.40
12015;DHT22;6066;48.138;16.402;2022-08-18T09:36:57;30.90;95.50
12015;DHT22;6066;48.138;16.402;2022-08-18T09:39:28;30.90;97.30
12015;DHT22;6066;48.138;16.402;2022-08-18T09:42:14;30.90;95.60
12015;DHT22;6066;48.138;16.402;2022-08-18T09:45:01;31.00;96.10
12015;DHT22;6066;48.138;16.402;2022-08-18T09:53:30;31.70;95.90
12015;DHT22;6066;48.138;16.402;2022-08-18T09:55:58;31.80;94.50
12015;DHT22;6066;48.138;16.402;2022-08-18T10:01:20;31.80;94.50
12015;DHT22;6066;48.138;16.402;2022-08-18T10:06:28;31.60;94.50
12015;DHT22;6066;48.138;16.402;2022-08-18T10:11:54;31.60;94.70
12015;DHT22;6066;48.138;16.402;2022-08-18T10:14:26;31.70;93.70
12015;DHT22;6066;48.138;16.402;2022-08-18T10:16:56;31.80;94.10
12015;DHT22;6066;48.138;16.402;2022-08-18T10:19:25;32.10;94.80
12015;DHT22;6066;48.138;16.402;2022-08-18T10:22:05;32.20;93.70
12015;DHT22;6066;48.138;16.402;2022-08-18T10:24:34;32.20;93.40
12015;DHT22;6066;48.138;16.402;2022-08-18T10:27:03;32.10;93.90
12015;DHT22;6066;48.138;16.402;2022-08-18T10:29:48;32.00;93.90
12015;DHT22;6066;48.138;16.402;2022-08-18T10:32:16;32.20;93.60
12015;DHT22;6066;48.138;16.402;2022-08-18T10:34:43;32.20;94.10
12015;DHT22;6066;48.138;16.402;2022-08-18T10:37:11;32.30;93.60
12015;DHT22;6066;48.138;16.402;2022-08-18T10:39:45;32.40;94.20
12015;DHT22;6066;48.138;16.402;2022-08-18T10:42:17;32.40;93.50
12015;DHT22;6066;48.138;16.402;2022-08-18T10:44:45;32.40;93.10
12015;DHT22;6066;48.138;16.402;2022-08-18T10:47:19;32.50;93.60
12015;DHT22;6066;48.138;16.402;2022-08-18T10:49:49;32.60;93.90
12015;DHT22;6066;48.138;16.402;2022-08-18T10:52:27;32.60;93.50
12015;DHT22;6066;48.138;16.402;2022-08-18T10:57:43;32.80;91.80
12015;DHT22;6066;48.138;16.402;2022-08-18T11:00:17;33.10;92.70
12015;DHT22;6066;48.138;16.402;2022-08-18T11:02:54;33.40;92.10
12015;DHT22;6066;48.138;16.402;2022-08-18T11:05:26;33.40;92.90
12015;DHT22;6066;48.138;16.402;2022-08-18T11:07:53;33.50;91.60
12015;DHT22;6066;48.138;16.402;2022-08-18T11:10:33;33.50;92.30
12015;DHT22;6066;48.138;16.402;2022-08-18T11:13:03;33.80;91.20
12015;DHT22;6066;48.138;16.402;2022-08-18T11:15:34;33.90;91.30
12015;DHT22;6066;48.138;16.402;2022-08-18T11:18:06;34.10;91.20
12015;DHT22;6066;48.138;16.402;2022-08-18T11:20:33;34.20;90.60
12015;DHT22;6066;48.138;16.402;2022-08-18T11:23:02;34.30;89.70
12015;DHT22;6066;48.138;16.402;2022-08-18T11:25:30;34.20;90.40
12015;DHT22;6066;48.138;16.402;2022-08-18T11:28:00;34.10;91.20
12015;DHT22;6066;48.138;16.402;2022-08-18T11:30:28;34.00;90.30
12015;DHT22;6066;48.138;16.402;2022-08-18T11:32:56;34.10;89.20
12015;DHT22;6066;48.138;16.402;2022-08-18T11:35:26;34.10;91.10
12015;DHT22;6066;48.138;16.402;2022-08-18T11:37:55;34.10;89.30
12015;DHT22;6066;48.138;16.402;2022-08-18T11:40:28;34.00;89.90
12015;DHT22;6066;48.138;16.402;2022-08-18T11:43:00;34.00;89.10
12015;DHT22;6066;48.138;16.402;2022-08-18T11:45:33;34.10;89.70
12015;DHT22;6066;48.138;16.402;2022-08-18T11:48:08;34.10;89.60
12015;DHT22;6066;48.138;16.402;2022-08-18T11:50:44;34.30;89.30
12015;DHT22;6066;48.138;16.402;2022-08-18T11:53:13;34.40;87.90
12015;DHT22;6066;48.138;16.402;2022-08-18T11:55:42;34.40;88.20
12015;DHT22;6066;48.138;16.402;2022-08-18T11:58:08;34.40;89.50
12015;DHT22;6066;48.138;16.402;2022-08-18T12:00:41;34.40;88.10
12015;DHT22;6066;48.138;16.402;2022-08-18T12:03:09;34.60;88.20
12015;DHT22;6066;48.138;16.402;2022-08-18T12:05:40;34.70;86.80
12015;DHT22;6066;48.138;16.402;2022-08-18T12:08:15;34.80;85.50
12015;DHT22;6066;48.138;16.402;2022-08-18T12:10:42;34.80;84.50
12015;DHT22;6066;48.138;16.402;2022-08-18T12:13:08;35.00;84.50
12015;DHT22;6066;48.138;16.402;2022-08-18T12:15:35;35.00;85.60
12015;DHT22;6066;48.138;16.402;2022-08-18T12:18:04;35.00;84.70
12015;DHT22;6066;48.138;16.402;2022-08-18T12:20:31;35.00;85.30
12015;DHT22;6066;48.138;16.402;2022-08-18T12:22:57;35.10;85.20
12015;DHT22;6066;48.138;16.402;2022-08-18T12:25:25;35.20;85.20
12015;DHT22;6066;48.138;16.402;2022-08-18T12:27:52;35.20;82.60
12015;DHT22;6066;48.138;16.402;2022-08-18T12:30:19;35.10;83.10
12015;DHT22;6066;48.138;16.402;2022-08-18T12:32:46;35.20;84.10
12015;DHT22;6066;48.138;16.402;2022-08-18T12:35:14;35.20;83.50
12015;DHT22;6066;48.138;16.402;2022-08-18T12:37:41;35.10;83.40
12015;DHT22;6066;48.138;16.402;2022-08-18T12:40:10;35.10;84.40
12015;DHT22;6066;48.138;16.402;2022-08-18T12:42:37;35.20;83.90
12015;DHT22;6066;48.138;16.402;2022-08-18T12:45:04;35.20;82.20
12015;DHT22;6066;48.138;16.402;2022-08-18T12:47:31;35.30;82.40
12015;DHT22;6066;48.138;16.402;2022-08-18T12:49:58;35.30;82.70
12015;DHT22;6066;48.138;16.402;2022-08-18T12:52:26;35.40;82.70
12015;DHT22;6066;48.138;16.402;2022-08-18T12:54:53;35.40;83.10
12015;DHT22;6066;48.138;16.402;2022-08-18T12:57:20;35.40;81.90
12015;DHT22;6066;48.138;16.402;2022-08-18T12:59:47;35.40;83.10
12015;DHT22;6066;48.138;16.402;2022-08-18T13:02:14;35.40;82.90
12015;DHT22;6066;48.138;16.402;2022-08-18T13:04:41;35.30;82.10
12015;DHT22;6066;48.138;16.402;2022-08-18T13:07:09;35.20;82.20
12015;DHT22;6066;48.138;16.402;2022-08-18T13:09:37;35.20;81.00
12015;DHT22;6066;48.138;16.402;2022-08-18T13:12:04;35.20;82.70
12015;DHT22;6066;48.138;16.402;2022-08-18T13:14:31;35.30;81.70
12015;DHT22;6066;48.138;16.402;2022-08-18T13:16:58;35.30;81.00
12015;DHT22;6066;48.138;16.402;2022-08-18T13:19:25;35.30;80.00
12015;DHT22;6066;48.138;16.402;2022-08-18T13:21:52;35.30;80.60
12015;DHT22;6066;48.138;16.402;2022-08-18T13:24:19;35.10;81.30
12015;DHT22;6066;48.138;16.402;2022-08-18T13:26:47;35.20;81.30
12015;DHT22;6066;48.138;16.402;2022-08-18T13:29:14;35.20;82.30
12015;DHT22;6066;48.138;16.402;2022-08-18T13:31:42;35.30;84.30
12015;DHT22;6066;48.138;16.402;2022-08-18T13:34:09;35.30;82.10
12015;DHT22;6066;48.138;16.402;2022-08-18T13:36:37;35.30;80.60
12015;DHT22;6066;48.138;16.402;2022-08-18T13:39:10;35.30;82.90
12015;DHT22;6066;48.138;16.402;2022-08-18T13:41:37;35.40;81.60
12015;DHT22;6066;48.138;16.402;2022-08-18T13:44:08;35.50;81.60
12015;DHT22;6066;48.138;16.402;2022-08-18T13:46:35;35.50;80.80
12015;DHT22;6066;48.138;16.402;2022-08-18T13:49:10;35.50;82.60
12015;DHT22;6066;48.138;16.402;2022-08-18T13:51:39;35.50;80.50
12015;DHT22;6066;48.138;16.402;2022-08-18T13:54:07;35.50;82.10
12015;DHT22;6066;48.138;16.402;2022-08-18T13:56:34;35.50;81.30
12015;DHT22;6066;48.138;16.402;2022-08-18T13:59:01;35.40;80.90
12015;DHT22;6066;48.138;16.402;2022-08-18T14:01:30;35.30;81.30
12015;DHT22;6066;48.138;16.402;2022-08-18T14:03:57;35.30;82.70
12015;DHT22;6066;48.138;16.402;2022-08-18T14:06:25;35.10;80.00
12015;DHT22;6066;48.138;16.402;2022-08-18T14:08:52;35.00;82.00
12015;DHT22;6066;48.138;16.402;2022-08-18T14:11:19;34.80;81.30
12015;DHT22;6066;48.138;16.402;2022-08-18T14:13:51;34.70;81.60
12015;DHT22;6066;48.138;16.402;2022-08-18T14:16:18;34.70;81.20
12015;DHT22;6066;48.138;16.402;2022-08-18T14:18:46;34.70;80.10
12015;DHT22;6066;48.138;16.402;2022-08-18T14:21:33;34.60;82.20
12015;DHT22;6066;48.138;16.402;2022-08-18T14:24:18;34.50;82.10
12015;DHT22;6066;48.138;16.402;2022-08-18T14:27:02;34.40;82.60
12015;DHT22;6066;48.138;16.402;2022-08-18T14:29:30;34.50;83.30
12015;DHT22;6066;48.138;16.402;2022-08-18T14:31:57;34.50;83.10
12015;DHT22;6066;48.138;16.402;2022-08-18T14:34:25;34.30;83.50
12015;DHT22;6066;48.138;16.402;2022-08-18T14:36:51;34.20;84.20
12015;DHT22;6066;48.138;16.402;2022-08-18T14:39:18;34.10;83.30
12015;DHT22;6066;48.138;16.402;2022-08-18T14:41:45;33.80;84.30
12015;DHT22;6066;48.138;16.402;2022-08-18T14:44:11;33.60;84.40
12015;DHT22;6066;48.138;16.402;2022-08-18T14:46:39;33.40;84.90
12015;DHT22;6066;48.138;16.402;2022-08-18T14:49:10;33.30;85.80
12015;DHT22;6066;48.138;16.402;2022-08-18T14:51:39;33.30;85.30
12015;DHT22;6066;48.138;16.402;2022-08-18T14:54:07;33.30;86.50
12015;DHT22;6066;48.138;16.402;2022-08-18T14:56:34;33.30;86.40
12015;DHT22;6066;48.138;16.402;2022-08-18T14:59:01;33.20;86.00
12015;DHT22;6066;48.138;16.402;2022-08-18T15:01:31;33.20;86.20
12015;DHT22;6066;48.138;16.402;2022-08-18T15:03:58;33.30;86.20
12015;DHT22;6066;48.138;16.402;2022-08-18T15:06:25;33.30;86.60
12015;DHT22;6066;48.138;16.402;2022-08-18T15:08:56;33.40;85.90
12015;DHT22;6066;48.138;16.402;2022-08-18T15:11:23;33.60;86.70
12015;DHT22;6066;48.138;16.402;2022-08-18T15:13:50;33.80;84.00
12015;DHT22;6066;48.138;16.402;2022-08-18T15:16:16;33.90;83.00
12015;DHT22;6066;48.138;16.402;2022-08-18T15:18:44;34.10;84.70
12015;DHT22;6066;48.138;16.402;2022-08-18T15:21:11;34.20;83.50
12015;DHT22;6066;48.138;16.402;2022-08-18T15:23:57;34.20;82.20
12015;DHT22;6066;48.138;16.402;2022-08-18T15:26:41;34.20;81.80
12015;DHT22;6066;48.138;16.402;2022-08-18T15:29:08;34.20;82.00
12015;DHT22;6066;48.138;16.402;2022-08-18T15:31:35;34.10;80.10
12015;DHT22;6066;48.138;16.402;2022-08-18T15:34:02;33.90;82.40
12015;DHT22;6066;48.138;16.402;2022-08-18T15:36:29;33.60;83.20
12015;DHT22;6066;48.138;16.402;2022-08-18T15:38:58;33.40;83.50
12015;DHT22;6066;48.138;16.402;2022-08-18T15:41:30;33.30;84.00
12015;DHT22;6066;48.138;16.402;2022-08-18T15:43:59;33.10;85.80
12015;DHT22;6066;48.138;16.402;2022-08-18T15:46:26;32.90;85.10
12015;DHT22;6066;48.138;16.402;2022-08-18T15:48:53;32.80;86.40
12015;DHT22;6066;48.138;16.402;2022-08-18T15:51:20;32.70;87.70
12015;DHT22;6066;48.138;16.402;2022-08-18T15:53:48;32.50;88.20
12015;DHT22;6066;48.138;16.402;2022-08-18T15:56:17;32.50;86.90
12015;DHT22;6066;48.138;16.402;2022-08-18T15:58:44;32.50;81.40
12015;DHT22;6066;48.138;16.402;2022-08-18T16:01:12;32.70;79.10
12015;DHT22;6066;48.138;16.402;2022-08-18T16:03:39;32.80;78.40
12015;DHT22;6066;48.138;16.402;2022-08-18T16:06:06;32.70;78.20
12015;DHT22;6066;48.138;16.402;2022-08-18T16:08:37;32.60;78.60